sensor_id;sensor_type;location;lat;lon;timestamp;P1;durP1;ratioP1;P2;durP2;ratioP2
80136;SDS011;69466;55.948;37.484;2024-01-30T00:00:44;10.07;;;5.20;;
80136;SDS011;69466;55.948;37.484;2024-01-30T00:03:11;9.23;;;4.70;;
80136;SDS011;69466;55.948;37.484;2024-01-30T00:05:37;10.25;;;5.00;;
80136;SDS011;69466;55.948;37.484;2024-01-30T00:08:04;10.75;;;5.40;;
80136;SDS011;69466;55.948;37.484;2024-01-30T00:10:30;10.98;;;5.50;;
80136;SDS011;69466;55.948;37.484;2024-01-30T00:12:56;10.43;;;5.68;;
80136;SDS011;69466;55.948;37.484;2024-01-30T00:15:23;9.68;;;5.25;;
80136;SDS011;69466;55.948;37.484;2024-01-30T00:17:49;9.85;;;5.25;;
80136;SDS011;69466;55.948;37.484;2024-01-30T00:20:17;8.50;;;4.90;;
80136;SDS011;69466;55.948;37.484;2024-01-30T00:22:43;8.82;;;5.03;;
80136;SDS011;69466;55.948;37.484;2024-01-30T00:25:10;9.63;;;4.93;;
80136;SDS011;69466;55.948;37.484;2024-01-30T00:27:36;9.90;;;5.00;;
80136;SDS011;69466;55.948;37.484;2024-01-30T00:30:02;11.68;;;5.63;;
80136;SDS011;69466;55.948;37.484;2024-01-30T00:32:30;10.07;;;4.82;;
80136;SDS011;69466;55.948;37.484;2024-01-30T00:34:56;11.52;;;5.28;;
80136;SDS011;69466;55.948;37.484;2024-01-30T00:37:22;9.95;;;5.95;;
80136;SDS011;69466;55.948;37.484;2024-01-30T00:39:49;10.18;;;5.10;;
80136;SDS011;69466;55.948;37.484;2024-01-30T00:42:15;9.43;;;4.47;;
80136;SDS011;69466;55.948;37.484;2024-01-30T00:44:42;9.48;;;5.10;;
80136;SDS011;69466;55.948;37.484;2024-01-30T00:47:08;12.45;;;5.90;;
80136;SDS011;69466;55.948;37.484;2024-01-30T00:49:35;11.52;;;5.20;;
80136;SDS011;69466;55.948;37.484;2024-01-30T00:52:01;8.60;;;4.47;;
80136;SDS011;69466;55.948;37.484;2024-01-30T00:54:30;10.95;;;4.97;;
80136;SDS011;69466;55.948;37.484;2024-01-30T00:56:56;9.80;;;5.18;;
80136;SDS011;69466;55.948;37.484;2024-01-30T00:59:22;12.77;;;5.78;;
80136;SDS011;69466;55.948;37.484;2024-01-30T01:01:48;8.70;;;5.18;;
80136;SDS011;69466;55.948;37.484;2024-01-30T01:04:14;9.52;;;4.65;;
80136;SDS011;69466;55.948;37.484;2024-01-30T01:06:40;8.88;;;4.55;;
80136;SDS011;69466;55.948;37.484;2024-01-30T01:09:10;8.65;;;5.03;;
80136;SDS011;69466;55.948;37.484;2024-01-30T01:11:37;10.32;;;5.30;;
80136;SDS011;69466;55.948;37.484;2024-01-30T01:14:04;8.75;;;4.90;;
80136;SDS011;69466;55.948;37.484;2024-01-30T01:16:31;9.88;;;5.30;;
80136;SDS011;69466;55.948;37.484;2024-01-30T01:18:57;9.63;;;4.95;;
80136;SDS011;69466;55.948;37.484;2024-01-30T01:21:23;10.80;;;5.72;;
80136;SDS011;69466;55.948;37.484;2024-01-30T01:23:49;9.13;;;5.18;;
80136;SDS011;69466;55.948;37.484;2024-01-30T01:26:15;9.65;;;5.00;;
80136;SDS011;69466;55.948;37.484;2024-01-30T01:28:41;9.95;;;5.28;;
80136;SDS011;69466;55.948;37.484;2024-01-30T01:31:07;12.18;;;5.03;;
80136;SDS011;69466;55.948;37.484;2024-01-30T01:33:34;10.48;;;5.53;;
80136;SDS011;69466;55.948;37.484;2024-01-30T01:36:02;8.13;;;4.25;;
80136;SDS011;69466;55.948;37.484;2024-01-30T01:38:28;10.48;;;5.20;;
80136;SDS011;69466;55.948;37.484;2024-01-30T01:40:55;12.52;;;6.28;;
80136;SDS011;69466;55.948;37.484;2024-01-30T01:43:22;9.88;;;5.45;;
80136;SDS011;69466;55.948;37.484;2024-01-30T01:45:50;10.27;;;5.90;;
80136;SDS011;69466;55.948;37.484;2024-01-30T01:51:13;9.55;;;5.85;;
80136;SDS011;69466;55.948;37.484;2024-01-30T01:56:12;8.68;;;4.65;;
80136;SDS011;69466;55.948;37.484;2024-01-30T02:01:11;10.02;;;5.15;;
80136;SDS011;69466;55.948;37.484;2024-01-30T02:03:40;9.60;;;4.88;;
80136;SDS011;69466;55.948;37.484;2024-01-30T02:06:08;9.63;;;5.35;;
80136;SDS011;69466;55.948;37.484;2024-01-30T02:08:36;11.40;;;5.40;;
80136;SDS011;69466;55.948;37.484;2024-01-30T02:11:03;13.55;;;6.15;;
80136;SDS011;69466;55.948;37.484;2024-01-30T02:13:30;10.43;;;5.18;;
80136;SDS011;69466;55.948;37.484;2024-01-30T02:15:56;12.20;;;6.10;;
80136;SDS011;69466;55.948;37.484;2024-01-30T02:18:22;9.52;;;6.07;;
80136;SDS011;69466;55.948;37.484;2024-01-30T02:21:08;13.27;;;7.28;;
80136;SDS011;69466;55.948;37.484;2024-01-30T02:23:34;9.75;;;5.32;;
80136;SDS011;69466;55.948;37.484;2024-01-30T02:26:00;13.85;;;7.40;;
80136;SDS011;69466;55.948;37.484;2024-01-30T02:28:27;11.65;;;6.20;;
80136;SDS011;69466;55.948;37.484;2024-01-30T02:30:53;12.07;;;6.85;;
80136;SDS011;69466;55.948;37.484;2024-01-30T02:33:19;11.10;;;5.80;;
80136;SDS011;69466;55.948;37.484;2024-01-30T02:35:47;12.27;;;6.22;;
80136;SDS011;69466;55.948;37.484;2024-01-30T02:38:18;11.23;;;5.88;;
80136;SDS011;69466;55.948;37.484;2024-01-30T02:40:45;8.50;;;5.57;;
80136;SDS011;69466;55.948;37.484;2024-01-30T02:43:11;9.82;;;5.32;;
80136;SDS011;69466;55.948;37.484;2024-01-30T02:45:37;9.55;;;5.28;;
80136;SDS011;69466;55.948;37.484;2024-01-30T02:48:03;10.70;;;5.90;;
80136;SDS011;69466;55.948;37.484;2024-01-30T02:50:30;11.75;;;6.00;;
80136;SDS011;69466;55.948;37.484;2024-01-30T02:52:56;11.48;;;5.88;;
80136;SDS011;69466;55.948;37.484;2024-01-30T02:55:22;12.45;;;5.68;;
80136;SDS011;69466;55.948;37.484;2024-01-30T02:57:48;11.25;;;5.25;;
80136;SDS011;69466;55.948;37.484;2024-01-30T03:00:14;11.43;;;5.95;;
80136;SDS011;69466;55.948;37.484;2024-01-30T03:02:40;8.32;;;5.13;;
80136;SDS011;69466;55.948;37.484;2024-01-30T03:05:07;9.50;;;5.35;;
80136;SDS011;69466;55.948;37.484;2024-01-30T03:07:34;10.00;;;5.15;;
80136;SDS011;69466;55.948;37.484;2024-01-30T03:10:00;10.60;;;5.97;;
80136;SDS011;69466;55.948;37.484;2024-01-30T03:12:26;13.63;;;6.05;;
80136;SDS011;69466;55.948;37.484;2024-01-30T03:14:52;11.40;;;5.97;;
80136;SDS011;69466;55.948;37.484;2024-01-30T03:17:18;14.13;;;7.95;;
80136;SDS011;69466;55.948;37.484;2024-01-30T03:19:52;12.10;;;5.38;;
80136;SDS011;69466;55.948;37.484;2024-01-30T03:31:21;12.55;;;6.68;;
80136;SDS011;69466;55.948;37.484;2024-01-30T03:33:47;15.20;;;6.35;;
80136;SDS011;69466;55.948;37.484;2024-01-30T03:36:15;10.85;;;5.32;;
80136;SDS011;69466;55.948;37.484;2024-01-30T03:38:42;11.20;;;5.07;;
80136;SDS011;69466;55.948;37.484;2024-01-30T03:44:07;11.90;;;5.88;;
80136;SDS011;69466;55.948;37.484;2024-01-30T03:51:02;14.60;;;6.72;;
80136;SDS011;69466;55.948;37.484;2024-01-30T03:56:29;12.75;;;6.32;;
80136;SDS011;69466;55.948;37.484;2024-01-30T03:58:55;10.35;;;5.95;;
80136;SDS011;69466;55.948;37.484;2024-01-30T04:01:22;12.32;;;6.38;;
80136;SDS011;69466;55.948;37.484;2024-01-30T04:03:55;12.15;;;6.63;;
80136;SDS011;69466;55.948;37.484;2024-01-30T04:06:22;14.43;;;6.32;;
80136;SDS011;69466;55.948;37.484;2024-01-30T04:08:50;12.90;;;6.88;;
80136;SDS011;69466;55.948;37.484;2024-01-30T04:11:18;11.73;;;5.78;;
80136;SDS011;69466;55.948;37.484;2024-01-30T04:13:46;12.70;;;6.03;;
80136;SDS011;69466;55.948;37.484;2024-01-30T04:16:22;12.45;;;7.03;;
80136;SDS011;69466;55.948;37.484;2024-01-30T04:18:51;11.10;;;6.20;;
80136;SDS011;69466;55.948;37.484;2024-01-30T04:21:20;13.82;;;7.13;;
80136;SDS011;69466;55.948;37.484;2024-01-30T04:23:47;14.13;;;6.95;;
80136;SDS011;69466;55.948;37.484;2024-01-30T04:26:14;13.07;;;6.78;;
80136;SDS011;69466;55.948;37.484;2024-01-30T04:28:44;14.30;;;7.47;;
80136;SDS011;69466;55.948;37.484;2024-01-30T04:31:12;11.60;;;6.25;;
80136;SDS011;69466;55.948;37.484;2024-01-30T04:33:38;13.23;;;6.28;;
80136;SDS011;69466;55.948;37.484;2024-01-30T04:36:04;13.30;;;6.70;;
80136;SDS011;69466;55.948;37.484;2024-01-30T04:38:34;13.50;;;7.35;;
80136;SDS011;69466;55.948;37.484;2024-01-30T04:41:02;12.43;;;6.57;;
80136;SDS011;69466;55.948;37.484;2024-01-30T04:43:30;12.30;;;5.93;;
80136;SDS011;69466;55.948;37.484;2024-01-30T04:45:56;12.18;;;6.40;;
80136;SDS011;69466;55.948;37.484;2024-01-30T04:48:22;14.65;;;7.28;;
80136;SDS011;69466;55.948;37.484;2024-01-30T04:50:48;12.68;;;6.78;;
80136;SDS011;69466;55.948;37.484;2024-01-30T04:53:15;12.55;;;7.40;;
80136;SDS011;69466;55.948;37.484;2024-01-30T04:55:41;15.57;;;6.40;;
80136;SDS011;69466;55.948;37.484;2024-01-30T04:58:07;14.60;;;6.70;;
80136;SDS011;69466;55.948;37.484;2024-01-30T05:00:33;16.15;;;7.32;;
80136;SDS011;69466;55.948;37.484;2024-01-30T05:02:59;13.10;;;6.72;;
80136;SDS011;69466;55.948;37.484;2024-01-30T05:05:27;15.75;;;6.38;;
80136;SDS011;69466;55.948;37.484;2024-01-30T05:07:55;10.77;;;5.93;;
80136;SDS011;69466;55.948;37.484;2024-01-30T05:10:21;14.82;;;6.65;;
80136;SDS011;69466;55.948;37.484;2024-01-30T05:12:47;13.85;;;7.15;;
80136;SDS011;69466;55.948;37.484;2024-01-30T05:15:13;15.75;;;7.22;;
80136;SDS011;69466;55.948;37.484;2024-01-30T05:17:41;17.63;;;8.82;;
80136;SDS011;69466;55.948;37.484;2024-01-30T05:20:07;13.15;;;6.75;;
80136;SDS011;69466;55.948;37.484;2024-01-30T05:22:34;12.60;;;7.25;;
80136;SDS011;69466;55.948;37.484;2024-01-30T05:25:00;12.15;;;6.93;;
80136;SDS011;69466;55.948;37.484;2024-01-30T05:27:27;14.40;;;7.75;;
80136;SDS011;69466;55.948;37.484;2024-01-30T05:29:53;12.93;;;7.03;;
80136;SDS011;69466;55.948;37.484;2024-01-30T05:32:19;12.93;;;7.00;;
80136;SDS011;69466;55.948;37.484;2024-01-30T05:34:46;15.18;;;7.57;;
80136;SDS011;69466;55.948;37.484;2024-01-30T05:37:12;13.60;;;7.65;;
80136;SDS011;69466;55.948;37.484;2024-01-30T05:39:42;15.38;;;8.10;;
80136;SDS011;69466;55.948;37.484;2024-01-30T05:42:08;16.98;;;7.40;;
80136;SDS011;69466;55.948;37.484;2024-01-30T05:44:36;13.45;;;7.15;;
80136;SDS011;69466;55.948;37.484;2024-01-30T05:47:02;15.90;;;7.90;;
80136;SDS011;69466;55.948;37.484;2024-01-30T05:49:29;15.73;;;7.63;;
80136;SDS011;69466;55.948;37.484;2024-01-30T05:51:55;14.63;;;7.68;;
80136;SDS011;69466;55.948;37.484;2024-01-30T05:54:21;16.13;;;7.78;;
80136;SDS011;69466;55.948;37.484;2024-01-30T05:56:47;15.30;;;8.52;;
80136;SDS011;69466;55.948;37.484;2024-01-30T05:59:13;13.98;;;7.75;;
80136;SDS011;69466;55.948;37.484;2024-01-30T06:01:47;14.10;;;7.82;;
80136;SDS011;69466;55.948;37.484;2024-01-30T06:04:14;21.90;;;8.67;;
80136;SDS011;69466;55.948;37.484;2024-01-30T06:06:41;13.77;;;8.02;;
80136;SDS011;69466;55.948;37.484;2024-01-30T06:09:07;13.43;;;7.43;;
80136;SDS011;69466;55.948;37.484;2024-01-30T06:11:35;18.92;;;9.05;;
80136;SDS011;69466;55.948;37.484;2024-01-30T06:14:01;17.65;;;7.85;;
80136;SDS011;69466;55.948;37.484;2024-01-30T06:16:27;17.45;;;7.97;;
80136;SDS011;69466;55.948;37.484;2024-01-30T06:18:55;18.23;;;8.25;;
80136;SDS011;69466;55.948;37.484;2024-01-30T06:21:22;18.42;;;8.65;;
80136;SDS011;69466;55.948;37.484;2024-01-30T06:23:49;19.48;;;7.97;;
80136;SDS011;69466;55.948;37.484;2024-01-30T06:26:15;17.65;;;7.55;;
80136;SDS011;69466;55.948;37.484;2024-01-30T06:28:41;15.23;;;7.50;;
80136;SDS011;69466;55.948;37.484;2024-01-30T06:31:07;14.18;;;8.88;;
80136;SDS011;69466;55.948;37.484;2024-01-30T06:33:40;16.85;;;8.75;;
80136;SDS011;69466;55.948;37.484;2024-01-30T06:36:07;16.27;;;9.32;;
80136;SDS011;69466;55.948;37.484;2024-01-30T06:38:33;15.25;;;6.93;;
80136;SDS011;69466;55.948;37.484;2024-01-30T06:41:01;16.48;;;8.77;;
80136;SDS011;69466;55.948;37.484;2024-01-30T06:43:28;17.42;;;8.57;;
80136;SDS011;69466;55.948;37.484;2024-01-30T06:45:56;13.70;;;7.43;;
80136;SDS011;69466;55.948;37.484;2024-01-30T06:48:23;16.73;;;8.85;;
80136;SDS011;69466;55.948;37.484;2024-01-30T06:50:49;16.70;;;8.52;;
80136;SDS011;69466;55.948;37.484;2024-01-30T06:53:16;14.80;;;7.60;;
80136;SDS011;69466;55.948;37.484;2024-01-30T06:55:42;15.68;;;9.75;;
80136;SDS011;69466;55.948;37.484;2024-01-30T06:58:08;21.35;;;8.02;;
80136;SDS011;69466;55.948;37.484;2024-01-30T07:00:37;18.63;;;8.60;;
80136;SDS011;69466;55.948;37.484;2024-01-30T07:03:18;17.25;;;8.48;;
80136;SDS011;69466;55.948;37.484;2024-01-30T07:05:49;16.42;;;8.23;;
80136;SDS011;69466;55.948;37.484;2024-01-30T07:08:18;21.35;;;9.40;;
80136;SDS011;69466;55.948;37.484;2024-01-30T07:10:44;21.65;;;9.32;;
80136;SDS011;69466;55.948;37.484;2024-01-30T07:13:18;15.32;;;7.30;;
80136;SDS011;69466;55.948;37.484;2024-01-30T07:15:50;15.98;;;8.18;;
80136;SDS011;69466;55.948;37.484;2024-01-30T07:18:17;14.05;;;7.65;;
80136;SDS011;69466;55.948;37.484;2024-01-30T07:20:46;18.63;;;8.80;;
80136;SDS011;69466;55.948;37.484;2024-01-30T07:23:19;15.38;;;8.98;;
80136;SDS011;69466;55.948;37.484;2024-01-30T07:25:50;14.50;;;8.48;;
80136;SDS011;69466;55.948;37.484;2024-01-30T07:28:26;15.05;;;9.30;;
80136;SDS011;69466;55.948;37.484;2024-01-30T07:31:01;15.32;;;8.13;;
80136;SDS011;69466;55.948;37.484;2024-01-30T07:33:31;15.75;;;8.15;;
80136;SDS011;69466;55.948;37.484;2024-01-30T07:35:58;17.15;;;7.38;;
80136;SDS011;69466;55.948;37.484;2024-01-30T07:38:28;17.20;;;8.18;;
80136;SDS011;69466;55.948;37.484;2024-01-30T07:41:04;12.73;;;7.35;;
80136;SDS011;69466;55.948;37.484;2024-01-30T07:43:40;14.18;;;7.72;;
80136;SDS011;69466;55.948;37.484;2024-01-30T07:46:08;15.45;;;7.15;;
80136;SDS011;69466;55.948;37.484;2024-01-30T07:48:34;16.33;;;8.85;;
80136;SDS011;69466;55.948;37.484;2024-01-30T07:51:00;17.73;;;8.23;;
80136;SDS011;69466;55.948;37.484;2024-01-30T07:53:26;15.07;;;8.07;;
80136;SDS011;69466;55.948;37.484;2024-01-30T07:55:52;19.25;;;9.13;;
80136;SDS011;69466;55.948;37.484;2024-01-30T07:58:20;17.08;;;8.52;;
80136;SDS011;69466;55.948;37.484;2024-01-30T08:00:49;18.20;;;8.43;;
80136;SDS011;69466;55.948;37.484;2024-01-30T08:03:33;15.43;;;7.95;;
80136;SDS011;69466;55.948;37.484;2024-01-30T08:06:05;16.05;;;8.05;;
80136;SDS011;69466;55.948;37.484;2024-01-30T08:08:32;16.15;;;7.47;;
80136;SDS011;69466;55.948;37.484;2024-01-30T08:11:01;15.77;;;7.88;;
80136;SDS011;69466;55.948;37.484;2024-01-30T08:13:27;19.95;;;9.73;;
80136;SDS011;69466;55.948;37.484;2024-01-30T08:15:56;19.58;;;9.15;;
80136;SDS011;69466;55.948;37.484;2024-01-30T08:18:26;17.63;;;10.07;;
80136;SDS011;69466;55.948;37.484;2024-01-30T08:20:55;16.23;;;8.80;;
80136;SDS011;69466;55.948;37.484;2024-01-30T08:23:41;20.40;;;8.35;;
80136;SDS011;69466;55.948;37.484;2024-01-30T08:26:08;15.73;;;7.35;;
80136;SDS011;69466;55.948;37.484;2024-01-30T08:28:34;17.42;;;8.43;;
80136;SDS011;69466;55.948;37.484;2024-01-30T08:31:02;16.55;;;8.20;;
80136;SDS011;69466;55.948;37.484;2024-01-30T08:33:38;13.80;;;8.23;;
80136;SDS011;69466;55.948;37.484;2024-01-30T08:36:04;15.45;;;8.40;;
80136;SDS011;69466;55.948;37.484;2024-01-30T08:38:30;20.50;;;8.77;;
80136;SDS011;69466;55.948;37.484;2024-01-30T08:40:58;15.05;;;8.05;;
80136;SDS011;69466;55.948;37.484;2024-01-30T08:43:24;17.48;;;7.90;;
80136;SDS011;69466;55.948;37.484;2024-01-30T08:45:50;17.45;;;8.50;;
80136;SDS011;69466;55.948;37.484;2024-01-30T08:48:17;15.75;;;8.77;;
80136;SDS011;69466;55.948;37.484;2024-01-30T08:50:46;18.48;;;9.00;;
80136;SDS011;69466;55.948;37.484;2024-01-30T08:53:12;15.60;;;9.38;;
80136;SDS011;69466;55.948;37.484;2024-01-30T08:55:44;15.88;;;8.90;;
80136;SDS011;69466;55.948;37.484;2024-01-30T08:58:10;19.95;;;9.20;;
80136;SDS011;69466;55.948;37.484;2024-01-30T09:00:37;16.92;;;8.40;;
80136;SDS011;69466;55.948;37.484;2024-01-30T09:03:04;18.00;;;7.90;;
80136;SDS011;69466;55.948;37.484;2024-01-30T09:05:30;16.73;;;8.15;;
80136;SDS011;69466;55.948;37.484;2024-01-30T09:07:57;21.48;;;9.10;;
80136;SDS011;69466;55.948;37.484;2024-01-30T09:10:25;18.50;;;10.63;;
80136;SDS011;69466;55.948;37.484;2024-01-30T09:12:51;13.27;;;9.40;;
80136;SDS011;69466;55.948;37.484;2024-01-30T09:15:17;16.15;;;8.63;;
80136;SDS011;69466;55.948;37.484;2024-01-30T09:17:44;19.13;;;10.10;;
80136;SDS011;69466;55.948;37.484;2024-01-30T09:20:11;17.80;;;10.43;;
80136;SDS011;69466;55.948;37.484;2024-01-30T09:22:37;17.35;;;10.07;;
80136;SDS011;69466;55.948;37.484;2024-01-30T09:25:04;19.27;;;8.57;;
80136;SDS011;69466;55.948;37.484;2024-01-30T09:27:34;19.33;;;8.85;;
80136;SDS011;69466;55.948;37.484;2024-01-30T09:30:00;16.13;;;8.32;;
80136;SDS011;69466;55.948;37.484;2024-01-30T09:32:26;16.58;;;8.88;;
80136;SDS011;69466;55.948;37.484;2024-01-30T09:34:55;17.10;;;8.68;;
80136;SDS011;69466;55.948;37.484;2024-01-30T09:37:23;20.85;;;10.23;;
80136;SDS011;69466;55.948;37.484;2024-01-30T09:39:49;16.27;;;8.45;;
80136;SDS011;69466;55.948;37.484;2024-01-30T09:44:57;19.20;;;9.40;;
80136;SDS011;69466;55.948;37.484;2024-01-30T09:47:23;19.27;;;9.82;;
80136;SDS011;69466;55.948;37.484;2024-01-30T09:49:50;19.48;;;9.38;;
80136;SDS011;69466;55.948;37.484;2024-01-30T09:52:17;18.23;;;9.85;;
80136;SDS011;69466;55.948;37.484;2024-01-30T09:54:44;16.77;;;8.73;;
80136;SDS011;69466;55.948;37.484;2024-01-30T09:57:11;19.23;;;10.05;;
80136;SDS011;69466;55.948;37.484;2024-01-30T09:59:38;18.17;;;9.48;;
80136;SDS011;69466;55.948;37.484;2024-01-30T10:02:04;18.02;;;9.00;;
80136;SDS011;69466;55.948;37.484;2024-01-30T10:04:30;18.58;;;9.82;;
80136;SDS011;69466;55.948;37.484;2024-01-30T10:06:56;19.02;;;8.77;;
80136;SDS011;69466;55.948;37.484;2024-01-30T10:09:26;14.98;;;8.43;;
80136;SDS011;69466;55.948;37.484;2024-01-30T10:11:52;18.15;;;8.82;;
80136;SDS011;69466;55.948;37.484;2024-01-30T10:14:22;16.42;;;9.20;;
80136;SDS011;69466;55.948;37.484;2024-01-30T10:16:48;15.80;;;8.27;;
80136;SDS011;69466;55.948;37.484;2024-01-30T10:19:14;19.85;;;9.25;;
80136;SDS011;69466;55.948;37.484;2024-01-30T10:21:40;21.58;;;10.60;;
80136;SDS011;69466;55.948;37.484;2024-01-30T10:24:08;18.38;;;10.05;;
80136;SDS011;69466;55.948;37.484;2024-01-30T10:26:38;18.58;;;9.30;;
80136;SDS011;69466;55.948;37.484;2024-01-30T10:29:07;17.35;;;8.90;;
80136;SDS011;69466;55.948;37.484;2024-01-30T10:31:33;19.88;;;9.60;;
80136;SDS011;69466;55.948;37.484;2024-01-30T10:33:59;18.25;;;9.85;;
80136;SDS011;69466;55.948;37.484;2024-01-30T10:36:27;16.52;;;9.32;;
80136;SDS011;69466;55.948;37.484;2024-01-30T10:38:58;18.13;;;9.45;;
80136;SDS011;69466;55.948;37.484;2024-01-30T10:41:28;20.50;;;11.27;;
80136;SDS011;69466;55.948;37.484;2024-01-30T10:46:35;19.10;;;8.98;;
80136;SDS011;69466;55.948;37.484;2024-01-30T10:49:04;16.63;;;9.18;;
80136;SDS011;69466;55.948;37.484;2024-01-30T10:51:31;19.08;;;10.77;;
80136;SDS011;69466;55.948;37.484;2024-01-30T10:53:58;21.35;;;9.65;;
80136;SDS011;69466;55.948;37.484;2024-01-30T10:56:25;19.23;;;10.40;;
80136;SDS011;69466;55.948;37.484;2024-01-30T10:58:52;19.05;;;9.35;;
80136;SDS011;69466;55.948;37.484;2024-01-30T11:01:20;19.48;;;9.20;;
80136;SDS011;69466;55.948;37.484;2024-01-30T11:03:51;18.10;;;9.43;;
80136;SDS011;69466;55.948;37.484;2024-01-30T11:06:22;17.02;;;9.60;;
80136;SDS011;69466;55.948;37.484;2024-01-30T11:09:02;20.45;;;9.30;;
80136;SDS011;69466;55.948;37.484;2024-01-30T11:11:50;17.95;;;9.68;;
80136;SDS011;69466;55.948;37.484;2024-01-30T11:14:22;17.42;;;10.00;;
80136;SDS011;69466;55.948;37.484;2024-01-30T11:16:49;18.13;;;10.27;;
80136;SDS011;69466;55.948;37.484;2024-01-30T11:19:15;19.48;;;10.07;;
80136;SDS011;69466;55.948;37.484;2024-01-30T11:21:50;19.73;;;9.30;;
80136;SDS011;69466;55.948;37.484;2024-01-30T11:24:19;21.15;;;10.82;;
80136;SDS011;69466;55.948;37.484;2024-01-30T11:26:50;19.02;;;9.52;;
80136;SDS011;69466;55.948;37.484;2024-01-30T11:29:25;17.35;;;9.65;;
80136;SDS011;69466;55.948;37.484;2024-01-30T11:31:54;19.23;;;10.52;;
80136;SDS011;69466;55.948;37.484;2024-01-30T11:34:21;21.17;;;9.55;;
80136;SDS011;69466;55.948;37.484;2024-01-30T11:36:51;17.25;;;9.25;;
80136;SDS011;69466;55.948;37.484;2024-01-30T11:39:24;16.83;;;9.25;;
80136;SDS011;69466;55.948;37.484;2024-01-30T11:41:52;17.77;;;9.65;;
80136;SDS011;69466;55.948;37.484;2024-01-30T11:44:20;16.10;;;9.45;;
80136;SDS011;69466;55.948;37.484;2024-01-30T11:46:53;18.27;;;10.27;;
80136;SDS011;69466;55.948;37.484;2024-01-30T11:49:20;19.90;;;9.98;;
80136;SDS011;69466;55.948;37.484;2024-01-30T11:51:46;17.00;;;8.85;;
80136;SDS011;69466;55.948;37.484;2024-01-30T11:54:19;17.35;;;9.23;;
80136;SDS011;69466;55.948;37.484;2024-01-30T11:56:51;19.45;;;9.52;;
80136;SDS011;69466;55.948;37.484;2024-01-30T11:59:17;20.98;;;10.15;;
80136;SDS011;69466;55.948;37.484;2024-01-30T12:01:48;21.60;;;10.23;;
80136;SDS011;69466;55.948;37.484;2024-01-30T12:04:15;17.63;;;9.77;;
80136;SDS011;69466;55.948;37.484;2024-01-30T12:06:41;20.13;;;9.35;;
80136;SDS011;69466;55.948;37.484;2024-01-30T12:09:10;23.40;;;10.63;;
80136;SDS011;69466;55.948;37.484;2024-01-30T12:11:51;20.15;;;9.55;;
80136;SDS011;69466;55.948;37.484;2024-01-30T12:14:21;18.30;;;8.35;;
80136;SDS011;69466;55.948;37.484;2024-01-30T12:16:50;21.25;;;10.15;;
80136;SDS011;69466;55.948;37.484;2024-01-30T12:19:24;22.25;;;9.95;;
80136;SDS011;69466;55.948;37.484;2024-01-30T12:21:57;18.83;;;9.38;;
80136;SDS011;69466;55.948;37.484;2024-01-30T12:24:25;19.48;;;8.90;;
80136;SDS011;69466;55.948;37.484;2024-01-30T12:26:56;16.23;;;8.90;;
80136;SDS011;69466;55.948;37.484;2024-01-30T12:29:31;17.55;;;9.18;;
80136;SDS011;69466;55.948;37.484;2024-01-30T12:31:58;19.27;;;9.65;;
80136;SDS011;69466;55.948;37.484;2024-01-30T12:34:29;22.48;;;9.85;;
80136;SDS011;69466;55.948;37.484;2024-01-30T12:36:55;16.10;;;8.45;;
80136;SDS011;69466;55.948;37.484;2024-01-30T12:39:21;17.85;;;9.32;;
80136;SDS011;69466;55.948;37.484;2024-01-30T12:41:51;16.88;;;8.40;;
80136;SDS011;69466;55.948;37.484;2024-01-30T12:44:18;16.15;;;8.70;;
80136;SDS011;69466;55.948;37.484;2024-01-30T12:46:44;16.67;;;8.98;;
80136;SDS011;69466;55.948;37.484;2024-01-30T12:49:12;17.83;;;9.02;;
80136;SDS011;69466;55.948;37.484;2024-01-30T12:51:38;20.10;;;9.75;;
80136;SDS011;69466;55.948;37.484;2024-01-30T12:54:06;17.00;;;8.60;;
80136;SDS011;69466;55.948;37.484;2024-01-30T12:56:32;18.65;;;9.95;;
80136;SDS011;69466;55.948;37.484;2024-01-30T12:59:02;18.05;;;9.35;;
80136;SDS011;69466;55.948;37.484;2024-01-30T13:01:31;20.20;;;10.90;;
80136;SDS011;69466;55.948;37.484;2024-01-30T13:04:00;23.17;;;10.25;;
80136;SDS011;69466;55.948;37.484;2024-01-30T13:06:27;17.45;;;10.27;;
80136;SDS011;69466;55.948;37.484;2024-01-30T13:08:57;16.73;;;8.38;;
80136;SDS011;69466;55.948;37.484;2024-01-30T13:11:29;19.83;;;10.13;;
80136;SDS011;69466;55.948;37.484;2024-01-30T13:13:56;20.85;;;9.93;;
80136;SDS011;69466;55.948;37.484;2024-01-30T13:16:37;20.65;;;10.23;;
80136;SDS011;69466;55.948;37.484;2024-01-30T13:19:18;21.27;;;9.65;;
80136;SDS011;69466;55.948;37.484;2024-01-30T13:21:47;22.05;;;10.18;;
80136;SDS011;69466;55.948;37.484;2024-01-30T13:24:18;20.02;;;10.82;;
80136;SDS011;69466;55.948;37.484;2024-01-30T13:26:47;21.15;;;11.10;;
80136;SDS011;69466;55.948;37.484;2024-01-30T13:29:15;19.05;;;9.15;;
80136;SDS011;69466;55.948;37.484;2024-01-30T13:31:41;18.85;;;9.52;;
80136;SDS011;69466;55.948;37.484;2024-01-30T13:34:10;18.20;;;9.43;;
80136;SDS011;69466;55.948;37.484;2024-01-30T13:36:36;19.38;;;9.27;;
80136;SDS011;69466;55.948;37.484;2024-01-30T13:39:02;23.80;;;11.30;;
80136;SDS011;69466;55.948;37.484;2024-01-30T13:41:30;22.30;;;12.07;;
80136;SDS011;69466;55.948;37.484;2024-01-30T13:43:57;21.45;;;10.60;;
80136;SDS011;69466;55.948;37.484;2024-01-30T13:46:23;22.10;;;9.60;;
80136;SDS011;69466;55.948;37.484;2024-01-30T13:48:50;23.73;;;10.93;;
80136;SDS011;69466;55.948;37.484;2024-01-30T13:51:17;20.55;;;10.68;;
80136;SDS011;69466;55.948;37.484;2024-01-30T13:53:43;24.65;;;10.50;;
80136;SDS011;69466;55.948;37.484;2024-01-30T13:56:09;21.45;;;10.82;;
80136;SDS011;69466;55.948;37.484;2024-01-30T13:58:35;21.02;;;11.13;;
80136;SDS011;69466;55.948;37.484;2024-01-30T14:01:02;23.02;;;10.75;;
80136;SDS011;69466;55.948;37.484;2024-01-30T14:03:28;23.00;;;10.23;;
80136;SDS011;69466;55.948;37.484;2024-01-30T14:05:54;19.52;;;9.85;;
80136;SDS011;69466;55.948;37.484;2024-01-30T14:08:20;19.77;;;9.57;;
80136;SDS011;69466;55.948;37.484;2024-01-30T14:10:49;17.67;;;9.70;;
80136;SDS011;69466;55.948;37.484;2024-01-30T14:13:16;24.30;;;10.43;;
80136;SDS011;69466;55.948;37.484;2024-01-30T14:15:42;21.35;;;11.30;;
80136;SDS011;69466;55.948;37.484;2024-01-30T14:18:09;21.33;;;10.85;;
80136;SDS011;69466;55.948;37.484;2024-01-30T14:20:36;20.58;;;10.18;;
80136;SDS011;69466;55.948;37.484;2024-01-30T14:23:03;24.42;;;10.75;;
80136;SDS011;69466;55.948;37.484;2024-01-30T14:25:29;25.40;;;11.18;;
80136;SDS011;69466;55.948;37.484;2024-01-30T14:27:59;18.88;;;9.05;;
80136;SDS011;69466;55.948;37.484;2024-01-30T14:30:25;23.23;;;10.55;;
80136;SDS011;69466;55.948;37.484;2024-01-30T14:32:52;21.88;;;11.15;;
80136;SDS011;69466;55.948;37.484;2024-01-30T14:35:19;20.05;;;10.68;;
80136;SDS011;69466;55.948;37.484;2024-01-30T14:37:46;18.95;;;10.60;;
80136;SDS011;69466;55.948;37.484;2024-01-30T14:40:15;25.40;;;11.48;;
80136;SDS011;69466;55.948;37.484;2024-01-30T14:42:42;23.35;;;11.32;;
80136;SDS011;69466;55.948;37.484;2024-01-30T14:45:08;19.00;;;11.05;;
80136;SDS011;69466;55.948;37.484;2024-01-30T14:47:34;20.30;;;11.02;;
80136;SDS011;69466;55.948;37.484;2024-01-30T14:50:04;23.55;;;12.60;;
80136;SDS011;69466;55.948;37.484;2024-01-30T14:52:31;23.88;;;11.80;;
80136;SDS011;69466;55.948;37.484;2024-01-30T14:54:58;29.60;;;11.13;;
80136;SDS011;69466;55.948;37.484;2024-01-30T14:57:27;21.45;;;11.82;;